Green Stars — V7VZ5 — position and weather

sailwx.info

Track history (hours):
 
Tides and Currents Weather Stations Pressure Air Temp Water Temp Dewpoint Dewpoint Depression Visibility Wind Speed Wind Dir Waves Ship Positions

Green Stars

Last reported at 2018-Feb-17 08:54 UTC. Time now 2018-Feb-22 14:52 UTC.
Position N 01°15' E 104°03'.

Length 182 m; draft 7 m.

Type: Tanker. MMSI: 538004247.

Date/timePositionNaut miles runAvg speedWind from/ knotsBaromVisibWave heightAir tempDewpointWater temp
2018-Feb-17 08:54N 01°15' E 104°03'511.9
2018-Feb-17 08:27N 01°14' E 103°58'612.1
2018-Feb-17 07:59N 01°12' E 103°53'612.4
2018-Feb-17 07:30N 01°09' E 103°47'612.3
2018-Feb-17 07:00N 01°05' E 103°43'510.2
2018-Feb-17 06:30N 01°03' E 103°38'711.8
2018-Feb-17 05:55N 01°07' E 103°32'511.9
2018-Feb-17 05:29N 01°10' E 103°28'611.4
2018-Feb-17 04:59N 01°13' E 103°23'  
Track history (hours):
 
Tides and Currents Weather Stations Pressure Air Temp Water Temp Dewpoint Dewpoint Depression Visibility Wind Speed Wind Dir Waves Ship Positions

Green Stars

Last reported at 2018-Feb-17 08:54 UTC. Time now 2018-Feb-22 14:52 UTC.
Position N 01°15' E 104°03'.

Length 182 m; draft 7 m.

Type: Tanker. MMSI: 538004247.

Date/timePositionNaut miles runAvg speedWind from/ knotsBaromVisibWave heightAir tempDewpointWater temp
2018-Feb-17 08:54N 01°15' E 104°03'511.9
2018-Feb-17 08:27N 01°14' E 103°58'612.1
2018-Feb-17 07:59N 01°12' E 103°53'612.4
2018-Feb-17 07:30N 01°09' E 103°47'612.3
2018-Feb-17 07:00N 01°05' E 103°43'510.2
2018-Feb-17 06:30N 01°03' E 103°38'711.8
2018-Feb-17 05:55N 01°07' E 103°32'511.9
2018-Feb-17 05:29N 01°10' E 103°28'611.4
2018-Feb-17 04:59N 01°13' E 103°23'  

Dump ship's entire track history